PWSweather.com
Personal Weather Stations
Station Observations
SPARKSRC
St. Petersburg, FL 33716

St. Petersburg, FL 33716

Lat: 27.876101, Lon: -82.657194

Elevation: 13

Station Type: Zephyr PWS-1000TD

Latest ConditionsUpdated 4:05:02 PM EST Friday, Feb 27, 2015
Currently Today's Max Today's Min Today's Average
Temperature 66.2°F19.0°C 69.1°F20.6°C 54.9°F12.7°C 59.1°F15.1°C
Dew Point 58.8°F14.9°C 58.8°F14.9°C 52.3°F11.3°C 55.6°F13.1°C
Winds 3.8 mph NE6.1 kmh NE 13.0 mph N20.9 kmh N - 7.7 mph 12.4 kmh
Wind Gusts 12.1 mph19.5 kmh 19.0 mph30.6 kmh - -
Humidity 77% 99% 68% 89%
Pressure 30.11 in1019.6 mb 30.18 in1022.0 mb 30.01 in1016.3 mb -
Hour Temp Dew Point Humidity Winds Wind Gusts Pressure Precip Precip Rate Daily Precip Total
04:05 PM 66.2°F19.0°C 58.8°F14.9°C 77% 3.8 mph NE6.1 kmh NE 12.1 mph19.5 kmh 30.11 in1019.6 mb 0.00 in0.0 mm 0.00 in/hr0.0 mm/hr 0.00 in0.0 mm
04:00 PM 66.2°F19.0°C 58.4°F14.7°C 76% 3.8 mph NE6.1 kmh NE 13.6 mph21.9 kmh 30.11 in1019.6 mb 0.00 in0.0 mm 0.00 in/hr0.0 mm/hr 0.00 in0.0 mm
03:55 PM 66.2°F19.0°C 58.4°F14.7°C 76% 3.8 mph NE6.1 kmh NE 14.5 mph23.3 kmh 30.11 in1019.6 mb 0.00 in0.0 mm 0.00 in/hr0.0 mm/hr 0.00 in0.0 mm
03:50 PM 66.4°F19.1°C 58.2°F14.6°C 75% 9.2 mph NE14.8 kmh NE 14.5 mph23.3 kmh 30.11 in1019.6 mb 0.00 in0.0 mm 0.00 in/hr0.0 mm/hr 0.00 in0.0 mm
03:45 PM 66.6°F19.2°C 58.8°F14.9°C 76% 9.8 mph NE15.8 kmh NE 14.5 mph23.3 kmh 30.11 in1019.6 mb 0.00 in0.0 mm 0.00 in/hr0.0 mm/hr 0.00 in0.0 mm
03:40 PM 66.6°F19.2°C 58.4°F14.7°C 75% 6.9 mph NE11.1 kmh NE 13.0 mph20.9 kmh 30.11 in1019.6 mb 0.00 in0.0 mm 0.00 in/hr0.0 mm/hr 0.00 in0.0 mm
03:35 PM 66.6°F19.2°C 58.4°F14.7°C 75% 6.0 mph NE9.7 kmh NE 13.0 mph20.9 kmh 30.11 in1019.6 mb 0.00 in0.0 mm 0.00 in/hr0.0 mm/hr 0.00 in0.0 mm
03:30 PM 66.6°F19.2°C 58.4°F14.7°C 75% 9.2 mph NE14.8 kmh NE 14.5 mph23.3 kmh 30.12 in1020.0 mb 0.00 in0.0 mm 0.00 in/hr0.0 mm/hr 0.00 in0.0 mm
03:25 PM 66.6°F19.2°C 58.4°F14.7°C 75% 5.4 mph NE8.7 kmh NE 14.5 mph23.3 kmh 30.11 in1019.6 mb 0.00 in0.0 mm 0.00 in/hr0.0 mm/hr 0.00 in0.0 mm
03:20 PM 66.9°F19.4°C 58.4°F14.7°C 74% 8.3 mph NE13.4 kmh NE 14.5 mph23.3 kmh 30.12 in1020.0 mb 0.00 in0.0 mm 0.00 in/hr0.0 mm/hr 0.00 in0.0 mm
03:15 PM 66.7°F19.3°C 58.2°F14.6°C 74% 6.0 mph NE9.7 kmh NE 14.5 mph23.3 kmh 30.12 in1020.0 mb 0.00 in0.0 mm 0.00 in/hr0.0 mm/hr 0.00 in0.0 mm
03:10 PM 67.1°F19.5°C 58.2°F14.6°C 73% 9.2 mph NE14.8 kmh NE 13.6 mph21.9 kmh 30.12 in1020.0 mb 0.00 in0.0 mm 0.00 in/hr0.0 mm/hr 0.00 in0.0 mm
03:05 PM 67.3°F19.6°C 58.4°F14.7°C 73% 9.2 mph NE14.8 kmh NE 13.6 mph21.9 kmh 30.12 in1020.0 mb 0.00 in0.0 mm 0.00 in/hr0.0 mm/hr 0.00 in0.0 mm
03:00 PM 67.3°F19.6°C 58.0°F14.4°C 72% 7.6 mph NE12.2 kmh NE 13.0 mph20.9 kmh 30.13 in1020.3 mb 0.00 in0.0 mm 0.00 in/hr0.0 mm/hr 0.00 in0.0 mm
02:55 PM 67.3°F19.6°C 58.4°F14.7°C 73% 8.3 mph NE13.4 kmh NE 13.0 mph20.9 kmh 30.12 in1020.0 mb 0.00 in0.0 mm 0.00 in/hr0.0 mm/hr 0.00 in0.0 mm
02:50 PM 67.3°F19.6°C 58.4°F14.7°C 73% 7.6 mph NE12.2 kmh NE 13.0 mph20.9 kmh 30.13 in1020.3 mb 0.00 in0.0 mm 0.00 in/hr0.0 mm/hr 0.00 in0.0 mm
02:45 PM 66.9°F19.4°C 58.0°F14.4°C 73% 6.0 mph ENE9.7 kmh ENE 11.4 mph18.3 kmh 30.13 in1020.3 mb 0.00 in0.0 mm 0.00 in/hr0.0 mm/hr 0.00 in0.0 mm
02:40 PM 66.7°F19.3°C 57.8°F14.3°C 73% 7.6 mph NE12.2 kmh NE 13.0 mph20.9 kmh 30.13 in1020.3 mb 0.00 in0.0 mm 0.00 in/hr0.0 mm/hr 0.00 in0.0 mm
02:35 PM 66.7°F19.3°C 57.4°F14.1°C 72% 6.0 mph NE9.7 kmh NE 13.0 mph20.9 kmh 30.13 in1020.3 mb 0.00 in0.0 mm 0.00 in/hr0.0 mm/hr 0.00 in0.0 mm
02:30 PM 67.1°F19.5°C 57.4°F14.1°C 71% 6.9 mph NE11.1 kmh NE 13.6 mph21.9 kmh 30.13 in1020.3 mb 0.00 in0.0 mm 0.00 in/hr0.0 mm/hr 0.00 in0.0 mm
02:25 PM 67.6°F19.8°C 57.5°F14.2°C 70% 6.9 mph ENE11.1 kmh ENE 15.2 mph24.5 kmh 30.13 in1020.3 mb 0.00 in0.0 mm 0.00 in/hr0.0 mm/hr 0.00 in0.0 mm
02:20 PM 68.2°F20.1°C 58.0°F14.4°C 70% 7.6 mph NE12.2 kmh NE 15.2 mph24.5 kmh 30.13 in1020.3 mb 0.00 in0.0 mm 0.00 in/hr0.0 mm/hr 0.00 in0.0 mm
02:15 PM 68.2°F20.1°C 58.0°F14.4°C 70% 9.8 mph NE15.8 kmh NE 15.2 mph24.5 kmh 30.12 in1020.0 mb 0.00 in0.0 mm 0.00 in/hr0.0 mm/hr 0.00 in0.0 mm
02:10 PM 68.2°F20.1°C 58.0°F14.4°C 70% 6.0 mph NE9.7 kmh NE 14.5 mph23.3 kmh 30.12 in1020.0 mb 0.00 in0.0 mm 0.00 in/hr0.0 mm/hr 0.00 in0.0 mm
02:05 PM 68.5°F20.3°C 57.6°F14.2°C 68% 9.2 mph NE14.8 kmh NE 14.5 mph23.3 kmh 30.13 in1020.3 mb 0.00 in0.0 mm 0.00 in/hr0.0 mm/hr 0.00 in0.0 mm
02:00 PM 69.1°F20.6°C 58.1°F14.5°C 68% 9.8 mph NE15.8 kmh NE 14.5 mph23.3 kmh 30.13 in1020.3 mb 0.00 in0.0 mm 0.00 in/hr0.0 mm/hr 0.00 in0.0 mm
01:55 PM 68.7°F20.4°C 57.8°F14.3°C 68% 8.3 mph NE13.4 kmh NE 14.5 mph23.3 kmh 30.13 in1020.3 mb 0.00 in0.0 mm 0.00 in/hr0.0 mm/hr 0.00 in0.0 mm
01:50 PM 68.5°F20.3°C 58.0°F14.4°C 69% 8.3 mph NE13.4 kmh NE 15.9 mph25.6 kmh 30.13 in1020.3 mb 0.00 in0.0 mm 0.00 in/hr0.0 mm/hr 0.00 in0.0 mm
01:45 PM 68.0°F20.0°C 57.5°F14.2°C 69% 8.3 mph NE13.4 kmh NE 15.9 mph25.6 kmh 30.13 in1020.3 mb 0.00 in0.0 mm 0.00 in/hr0.0 mm/hr 0.00 in0.0 mm
01:40 PM 67.6°F19.8°C 57.9°F14.4°C 71% 7.6 mph NE12.2 kmh NE 15.9 mph25.6 kmh 30.13 in1020.3 mb 0.00 in0.0 mm 0.00 in/hr0.0 mm/hr 0.00 in0.0 mm
01:35 PM 67.6°F19.8°C 57.9°F14.4°C 71% 8.3 mph NE13.4 kmh NE 16.8 mph27.0 kmh 30.14 in1020.7 mb 0.00 in0.0 mm 0.00 in/hr0.0 mm/hr 0.00 in0.0 mm
01:30 PM 66.6°F19.2°C 57.7°F14.3°C 73% 7.6 mph NE12.2 kmh NE 16.8 mph27.0 kmh 30.14 in1020.7 mb 0.00 in0.0 mm 0.00 in/hr0.0 mm/hr 0.00 in0.0 mm
01:25 PM 65.8°F18.8°C 57.0°F13.9°C 73% 8.3 mph NE13.4 kmh NE 14.5 mph23.3 kmh 30.14 in1020.7 mb 0.00 in0.0 mm 0.00 in/hr0.0 mm/hr 0.00 in0.0 mm
01:20 PM 65.1°F18.4°C 56.6°F13.7°C 74% 9.2 mph NE14.8 kmh NE 15.9 mph25.6 kmh 30.15 in1021.0 mb 0.00 in0.0 mm 0.00 in/hr0.0 mm/hr 0.00 in0.0 mm
01:15 PM 64.8°F18.2°C 56.3°F13.5°C 74% 9.2 mph NE14.8 kmh NE 15.9 mph25.6 kmh 30.15 in1021.0 mb 0.00 in0.0 mm 0.00 in/hr0.0 mm/hr 0.00 in0.0 mm
01:10 PM 64.4°F18.0°C 56.0°F13.3°C 74% 8.3 mph NE13.4 kmh NE 15.9 mph25.6 kmh 30.15 in1021.0 mb 0.00 in0.0 mm 0.00 in/hr0.0 mm/hr 0.00 in0.0 mm
01:05 PM 64.6°F18.1°C 55.7°F13.2°C 73% 6.9 mph NE11.1 kmh NE 13.0 mph20.9 kmh 30.15 in1021.0 mb 0.00 in0.0 mm 0.00 in/hr0.0 mm/hr 0.00 in0.0 mm
01:00 PM 65.3°F18.5°C 56.4°F13.6°C 73% 7.6 mph NE12.2 kmh NE 13.6 mph21.9 kmh 30.16 in1021.3 mb 0.00 in0.0 mm 0.00 in/hr0.0 mm/hr 0.00 in0.0 mm
12:55 PM 65.7°F18.7°C 56.0°F13.3°C 71% 9.2 mph NE14.8 kmh NE 16.8 mph27.0 kmh 30.16 in1021.3 mb 0.00 in0.0 mm 0.00 in/hr0.0 mm/hr 0.00 in0.0 mm
12:50 PM 66.0°F18.9°C 56.4°F13.6°C 71% 10.7 mph NNE17.2 kmh NNE 16.8 mph27.0 kmh 30.15 in1021.0 mb 0.00 in0.0 mm 0.00 in/hr0.0 mm/hr 0.00 in0.0 mm
12:45 PM 66.2°F19.0°C 56.5°F13.6°C 71% 9.2 mph N14.8 kmh N 12.1 mph19.5 kmh 30.15 in1021.0 mb 0.00 in0.0 mm 0.00 in/hr0.0 mm/hr 0.00 in0.0 mm
12:40 PM 64.8°F18.2°C 56.7°F13.7°C 75% 6.9 mph N11.1 kmh N 13.6 mph21.9 kmh 30.15 in1021.0 mb 0.00 in0.0 mm 0.00 in/hr0.0 mm/hr 0.00 in0.0 mm
12:35 PM 64.4°F18.0°C 56.0°F13.3°C 74% 6.9 mph NE11.1 kmh NE 13.6 mph21.9 kmh 30.16 in1021.3 mb 0.00 in0.0 mm 0.00 in/hr0.0 mm/hr 0.00 in0.0 mm
12:30 PM 63.1°F17.3°C 56.2°F13.4°C 78% 9.2 mph NE14.8 kmh NE 13.6 mph21.9 kmh 30.16 in1021.3 mb 0.00 in0.0 mm 0.00 in/hr0.0 mm/hr 0.00 in0.0 mm
12:25 PM 61.7°F16.5°C 55.1°F12.8°C 79% 8.3 mph NE13.4 kmh NE 13.6 mph21.9 kmh 30.16 in1021.3 mb 0.00 in0.0 mm 0.00 in/hr0.0 mm/hr 0.00 in0.0 mm
12:20 PM 61.7°F16.5°C 54.4°F12.4°C 77% 9.2 mph NNE14.8 kmh NNE 14.5 mph23.3 kmh 30.17 in1021.7 mb 0.00 in0.0 mm 0.00 in/hr0.0 mm/hr 0.00 in0.0 mm
12:15 PM 61.7°F16.5°C 54.1°F12.3°C 76% 8.3 mph N13.4 kmh N 14.5 mph23.3 kmh 30.17 in1021.7 mb 0.00 in0.0 mm 0.00 in/hr0.0 mm/hr 0.00 in0.0 mm
12:10 PM 62.1°F16.7°C 54.4°F12.4°C 76% 10.7 mph N17.2 kmh N 15.2 mph24.5 kmh 30.17 in1021.7 mb 0.00 in0.0 mm 0.00 in/hr0.0 mm/hr 0.00 in0.0 mm
12:05 PM 62.1°F16.7°C 54.4°F12.4°C 76% 6.9 mph NNE11.1 kmh NNE 15.9 mph25.6 kmh 30.17 in1021.7 mb 0.00 in0.0 mm 0.00 in/hr0.0 mm/hr 0.00 in0.0 mm
12:00 PM 62.6°F17.0°C 54.6°F12.6°C 75% 8.3 mph NE13.4 kmh NE 15.9 mph25.6 kmh 30.17 in1021.7 mb 0.00 in0.0 mm 0.00 in/hr0.0 mm/hr 0.00 in0.0 mm
11:55 AM 63.0°F17.2°C 55.3°F12.9°C 76% 10.7 mph NE17.2 kmh NE 15.9 mph25.6 kmh 30.17 in1021.7 mb 0.00 in0.0 mm 0.00 in/hr0.0 mm/hr 0.00 in0.0 mm
11:50 AM 62.2°F16.8°C 55.0°F12.8°C 77% 6.9 mph NNE11.1 kmh NNE 15.2 mph24.5 kmh 30.18 in1022.0 mb 0.00 in0.0 mm 0.00 in/hr0.0 mm/hr 0.00 in0.0 mm
11:45 AM 61.5°F16.4°C 55.0°F12.8°C 79% 7.6 mph N12.2 kmh N 15.2 mph24.5 kmh 30.18 in1022.0 mb 0.00 in0.0 mm 0.00 in/hr0.0 mm/hr 0.00 in0.0 mm
11:40 AM 61.5°F16.4°C 54.3°F12.4°C 77% 9.2 mph NNE14.8 kmh NNE 15.2 mph24.5 kmh 30.18 in1022.0 mb 0.00 in0.0 mm 0.00 in/hr0.0 mm/hr 0.00 in0.0 mm
11:35 AM 61.7°F16.5°C 54.8°F12.7°C 78% 6.9 mph NNE11.1 kmh NNE 15.2 mph24.5 kmh 30.18 in1022.0 mb 0.00 in0.0 mm 0.00 in/hr0.0 mm/hr 0.00 in0.0 mm
11:30 AM 61.5°F16.4°C 54.3°F12.4°C 77% 9.8 mph N15.8 kmh N 15.2 mph24.5 kmh 30.18 in1022.0 mb 0.00 in0.0 mm 0.00 in/hr0.0 mm/hr 0.00 in0.0 mm
11:25 AM 61.5°F16.4°C 55.0°F12.8°C 79% 7.6 mph N12.2 kmh N 14.5 mph23.3 kmh 30.18 in1022.0 mb 0.00 in0.0 mm 0.00 in/hr0.0 mm/hr 0.00 in0.0 mm
11:20 AM 61.5°F16.4°C 54.6°F12.6°C 78% 9.8 mph NNE15.8 kmh NNE 14.5 mph23.3 kmh 30.18 in1022.0 mb 0.00 in0.0 mm 0.00 in/hr0.0 mm/hr 0.00 in0.0 mm
11:15 AM 61.2°F16.2°C 54.6°F12.6°C 79% 8.3 mph NE13.4 kmh NE 14.5 mph23.3 kmh 30.18 in1022.0 mb 0.00 in0.0 mm 0.00 in/hr0.0 mm/hr 0.00 in0.0 mm
11:10 AM 60.6°F15.9°C 54.8°F12.7°C 81% 7.6 mph NE12.2 kmh NE 14.5 mph23.3 kmh 30.18 in1022.0 mb 0.00 in0.0 mm 0.00 in/hr0.0 mm/hr 0.00 in0.0 mm
11:05 AM 60.4°F15.8°C 54.6°F12.6°C 81% 6.9 mph NNE11.1 kmh NNE 13.0 mph20.9 kmh 30.18 in1022.0 mb 0.00 in0.0 mm 0.00 in/hr0.0 mm/hr 0.00 in0.0 mm
11:00 AM 60.1°F15.6°C 54.9°F12.7°C 83% 8.3 mph NNE13.4 kmh NNE 13.6 mph21.9 kmh 30.18 in1022.0 mb 0.00 in0.0 mm 0.00 in/hr0.0 mm/hr 0.00 in0.0 mm
10:55 AM 59.4°F15.2°C 54.2°F12.3°C 83% 4.5 mph NNE7.2 kmh NNE 13.6 mph21.9 kmh 30.17 in1021.7 mb 0.00 in0.0 mm 0.00 in/hr0.0 mm/hr 0.00 in0.0 mm
10:50 AM 59.2°F15.1°C 54.7°F12.6°C 85% 5.4 mph NE8.7 kmh NE 14.5 mph23.3 kmh 30.17 in1021.7 mb 0.00 in0.0 mm 0.00 in/hr0.0 mm/hr 0.00 in0.0 mm
10:45 AM 59.0°F15.0°C 54.2°F12.3°C 84% 4.5 mph NE7.2 kmh NE 14.5 mph23.3 kmh 30.18 in1022.0 mb 0.00 in0.0 mm 0.00 in/hr0.0 mm/hr 0.00 in0.0 mm
10:40 AM 58.8°F14.9°C 54.0°F12.2°C 84% 8.3 mph NNE13.4 kmh NNE 16.8 mph27.0 kmh 30.18 in1022.0 mb 0.00 in0.0 mm 0.00 in/hr0.0 mm/hr 0.00 in0.0 mm
10:35 AM 58.6°F14.8°C 54.2°F12.3°C 85% 8.3 mph N13.4 kmh N 16.8 mph27.0 kmh 30.18 in1022.0 mb 0.00 in0.0 mm 0.00 in/hr0.0 mm/hr 0.00 in0.0 mm
10:30 AM 58.5°F14.7°C 54.0°F12.2°C 85% 10.7 mph N17.2 kmh N 18.3 mph29.5 kmh 30.18 in1022.0 mb 0.00 in0.0 mm 0.00 in/hr0.0 mm/hr 0.00 in0.0 mm
10:25 AM 57.9°F14.4°C 53.4°F11.9°C 85% 9.8 mph N15.8 kmh N 18.3 mph29.5 kmh 30.18 in1022.0 mb 0.00 in0.0 mm 0.00 in/hr0.0 mm/hr 0.00 in0.0 mm
10:20 AM 57.7°F14.3°C 53.6°F12.0°C 86% 10.7 mph N17.2 kmh N 18.3 mph29.5 kmh 30.18 in1022.0 mb 0.00 in0.0 mm 0.00 in/hr0.0 mm/hr 0.00 in0.0 mm
10:15 AM 57.7°F14.3°C 53.9°F12.2°C 87% 9.2 mph NNE14.8 kmh NNE 13.6 mph21.9 kmh 30.17 in1021.7 mb 0.00 in0.0 mm 0.00 in/hr0.0 mm/hr 0.00 in0.0 mm
10:10 AM 57.4°F14.1°C 54.2°F12.3°C 89% 6.9 mph NNE11.1 kmh NNE 13.0 mph20.9 kmh 30.17 in1021.7 mb 0.00 in0.0 mm 0.00 in/hr0.0 mm/hr 0.00 in0.0 mm
10:05 AM 56.7°F13.7°C 53.2°F11.8°C 88% 6.9 mph N11.1 kmh N 14.5 mph23.3 kmh 30.18 in1022.0 mb 0.00 in0.0 mm 0.00 in/hr0.0 mm/hr 0.00 in0.0 mm
10:00 AM 56.5°F13.6°C 53.3°F11.8°C 89% 9.2 mph N14.8 kmh N 14.5 mph23.3 kmh 30.18 in1022.0 mb 0.00 in0.0 mm 0.00 in/hr0.0 mm/hr 0.00 in0.0 mm
09:55 AM 56.3°F13.5°C 53.1°F11.7°C 89% 8.3 mph NNE13.4 kmh NNE 14.5 mph23.3 kmh 30.18 in1022.0 mb 0.00 in0.0 mm 0.00 in/hr0.0 mm/hr 0.00 in0.0 mm
09:50 AM 55.9°F13.3°C 52.8°F11.6°C 89% 11.4 mph NE18.3 kmh NE 14.5 mph23.3 kmh 30.17 in1021.7 mb 0.00 in0.0 mm 0.00 in/hr0.0 mm/hr 0.00 in0.0 mm
09:45 AM 56.1°F13.4°C 53.2°F11.8°C 90% 9.2 mph NNE14.8 kmh NNE 15.2 mph24.5 kmh 30.17 in1021.7 mb 0.00 in0.0 mm 0.00 in/hr0.0 mm/hr 0.00 in0.0 mm
09:40 AM 55.6°F13.1°C 52.7°F11.5°C 90% 11.4 mph NNE18.3 kmh NNE 15.2 mph24.5 kmh 30.17 in1021.7 mb 0.00 in0.0 mm 0.00 in/hr0.0 mm/hr 0.00 in0.0 mm
09:35 AM 55.4°F13.0°C 52.5°F11.4°C 90% 6.0 mph NNE9.7 kmh NNE 14.5 mph23.3 kmh 30.16 in1021.3 mb 0.00 in0.0 mm 0.00 in/hr0.0 mm/hr 0.00 in0.0 mm
09:30 AM 55.4°F13.0°C 52.5°F11.4°C 90% 9.8 mph NNE15.8 kmh NNE 15.9 mph25.6 kmh 30.16 in1021.3 mb 0.00 in0.0 mm 0.00 in/hr0.0 mm/hr 0.00 in0.0 mm
09:25 AM 55.2°F12.9°C 52.3°F11.3°C 90% 9.2 mph NNE14.8 kmh NNE 15.9 mph25.6 kmh 30.17 in1021.7 mb 0.00 in0.0 mm 0.00 in/hr0.0 mm/hr 0.00 in0.0 mm
09:20 AM 55.0°F12.8°C 52.5°F11.4°C 91% 11.4 mph N18.3 kmh N 15.9 mph25.6 kmh 30.16 in1021.3 mb 0.00 in0.0 mm 0.00 in/hr0.0 mm/hr 0.00 in0.0 mm
09:15 AM 55.0°F12.8°C 53.1°F11.7°C 93% 9.8 mph N15.8 kmh N 15.9 mph25.6 kmh 30.16 in1021.3 mb 0.00 in0.0 mm 0.00 in/hr0.0 mm/hr 0.00 in0.0 mm
09:10 AM 54.9°F12.7°C 52.9°F11.6°C 93% 9.8 mph N15.8 kmh N 13.6 mph21.9 kmh 30.16 in1021.3 mb 0.00 in0.0 mm 0.00 in/hr0.0 mm/hr 0.00 in0.0 mm
09:05 AM 54.9°F12.7°C 53.2°F11.8°C 94% 8.3 mph NNE13.4 kmh NNE 13.0 mph20.9 kmh 30.16 in1021.3 mb 0.00 in0.0 mm 0.00 in/hr0.0 mm/hr 0.00 in0.0 mm
09:00 AM 54.9°F12.7°C 52.9°F11.6°C 93% 6.9 mph NNE11.1 kmh NNE 13.6 mph21.9 kmh 30.16 in1021.3 mb 0.00 in0.0 mm 0.00 in/hr0.0 mm/hr 0.00 in0.0 mm
08:55 AM 54.9°F12.7°C 53.2°F11.8°C 94% 6.0 mph NNE9.7 kmh NNE 15.2 mph24.5 kmh 30.16 in1021.3 mb 0.00 in0.0 mm 0.00 in/hr0.0 mm/hr 0.00 in0.0 mm
08:50 AM 54.9°F12.7°C 53.2°F11.8°C 94% 8.3 mph N13.4 kmh N 15.2 mph24.5 kmh 30.15 in1021.0 mb 0.00 in0.0 mm 0.00 in/hr0.0 mm/hr 0.00 in0.0 mm
08:45 AM 54.9°F12.7°C 53.2°F11.8°C 94% 9.2 mph N14.8 kmh N 14.5 mph23.3 kmh 30.15 in1021.0 mb 0.00 in0.0 mm 0.00 in/hr0.0 mm/hr 0.00 in0.0 mm
08:40 AM 54.9°F12.7°C 53.2°F11.8°C 94% 8.3 mph N13.4 kmh N 13.6 mph21.9 kmh 30.15 in1021.0 mb 0.00 in0.0 mm 0.00 in/hr0.0 mm/hr 0.00 in0.0 mm
08:35 AM 55.0°F12.8°C 53.6°F12.0°C 95% 9.2 mph N14.8 kmh N 14.5 mph23.3 kmh 30.15 in1021.0 mb 0.00 in0.0 mm 0.00 in/hr0.0 mm/hr 0.00 in0.0 mm
08:30 AM 54.9°F12.7°C 53.5°F11.9°C 95% 6.0 mph NNE9.7 kmh NNE 15.2 mph24.5 kmh 30.14 in1020.7 mb 0.00 in0.0 mm 0.00 in/hr0.0 mm/hr 0.00 in0.0 mm
08:25 AM 54.9°F12.7°C 53.2°F11.8°C 94% 5.4 mph N8.7 kmh N 15.9 mph25.6 kmh 30.14 in1020.7 mb 0.00 in0.0 mm 0.00 in/hr0.0 mm/hr 0.00 in0.0 mm
08:20 AM 54.9°F12.7°C 53.2°F11.8°C 94% 10.7 mph N17.2 kmh N 15.9 mph25.6 kmh 30.14 in1020.7 mb 0.00 in0.0 mm 0.00 in/hr0.0 mm/hr 0.00 in0.0 mm
08:15 AM 54.9°F12.7°C 53.2°F11.8°C 94% 9.2 mph N14.8 kmh N 15.9 mph25.6 kmh 30.14 in1020.7 mb 0.00 in0.0 mm 0.00 in/hr0.0 mm/hr 0.00 in0.0 mm
08:10 AM 55.0°F12.8°C 53.6°F12.0°C 95% 9.2 mph N14.8 kmh N 15.9 mph25.6 kmh 30.13 in1020.3 mb 0.00 in0.0 mm 0.00 in/hr0.0 mm/hr 0.00 in0.0 mm
08:05 AM 55.0°F12.8°C 53.6°F12.0°C 95% 10.7 mph NNE17.2 kmh NNE 16.8 mph27.0 kmh 30.13 in1020.3 mb 0.00 in0.0 mm 0.00 in/hr0.0 mm/hr 0.00 in0.0 mm
08:00 AM 55.0°F12.8°C 53.6°F12.0°C 95% 7.6 mph NNE12.2 kmh NNE 16.8 mph27.0 kmh 30.13 in1020.3 mb 0.00 in0.0 mm 0.00 in/hr0.0 mm/hr 0.00 in0.0 mm
07:55 AM 54.9°F12.7°C 53.5°F11.9°C 95% 6.0 mph N9.7 kmh N 17.4 mph28.0 kmh 30.13 in1020.3 mb 0.00 in0.0 mm 0.00 in/hr0.0 mm/hr 0.00 in0.0 mm
07:50 AM 55.0°F12.8°C 53.6°F12.0°C 95% 13.0 mph N20.9 kmh N 18.3 mph29.5 kmh 30.13 in1020.3 mb 0.00 in0.0 mm 0.00 in/hr0.0 mm/hr 0.00 in0.0 mm
07:45 AM 55.0°F12.8°C 53.6°F12.0°C 95% 9.2 mph N14.8 kmh N 18.3 mph29.5 kmh 30.12 in1020.0 mb 0.00 in0.0 mm 0.00 in/hr0.0 mm/hr 0.00 in0.0 mm
07:40 AM 55.0°F12.8°C 53.9°F12.2°C 96% 7.6 mph N12.2 kmh N 18.3 mph29.5 kmh 30.11 in1019.6 mb 0.00 in0.0 mm 0.00 in/hr0.0 mm/hr 0.00 in0.0 mm
07:35 AM 55.0°F12.8°C 53.6°F12.0°C 95% 8.3 mph NNE13.4 kmh NNE 18.3 mph29.5 kmh 30.11 in1019.6 mb 0.00 in0.0 mm 0.00 in/hr0.0 mm/hr 0.00 in0.0 mm
07:30 AM 55.0°F12.8°C 53.6°F12.0°C 95% 12.1 mph NNE19.5 kmh NNE 19.0 mph30.6 kmh 30.11 in1019.6 mb 0.00 in0.0 mm 0.00 in/hr0.0 mm/hr 0.00 in0.0 mm
07:25 AM 55.2°F12.9°C 53.8°F12.1°C 95% 8.3 mph NNE13.4 kmh NNE 19.0 mph30.6 kmh 30.10 in1019.3 mb 0.00 in0.0 mm 0.00 in/hr0.0 mm/hr 0.00 in0.0 mm
07:20 AM 55.6°F13.1°C 54.5°F12.5°C 96% 8.3 mph NNE13.4 kmh NNE 15.2 mph24.5 kmh 30.10 in1019.3 mb 0.00 in0.0 mm 0.00 in/hr0.0 mm/hr 0.00 in0.0 mm
07:15 AM 55.6°F13.1°C 54.5°F12.5°C 96% 9.2 mph NNE14.8 kmh NNE 15.9 mph25.6 kmh 30.10 in1019.3 mb 0.00 in0.0 mm 0.00 in/hr0.0 mm/hr 0.00 in0.0 mm
07:10 AM 55.8°F13.2°C 54.6°F12.6°C 96% 6.9 mph NNE11.1 kmh NNE 15.9 mph25.6 kmh 30.10 in1019.3 mb 0.00 in0.0 mm 0.00 in/hr0.0 mm/hr 0.00 in0.0 mm
07:05 AM 55.8°F13.2°C 54.9°F12.7°C 97% 8.3 mph NNE13.4 kmh NNE 14.5 mph23.3 kmh 30.09 in1019.0 mb 0.00 in0.0 mm 0.00 in/hr0.0 mm/hr 0.00 in0.0 mm
07:00 AM 55.8°F13.2°C 54.9°F12.7°C 97% 9.2 mph NNE14.8 kmh NNE 14.5 mph23.3 kmh 30.09 in1019.0 mb 0.00 in0.0 mm 0.00 in/hr0.0 mm/hr 0.00 in0.0 mm
06:55 AM 55.9°F13.3°C 55.1°F12.8°C 97% 7.6 mph NNE12.2 kmh NNE 17.4 mph28.0 kmh 30.09 in1019.0 mb 0.00 in0.0 mm 0.00 in/hr0.0 mm/hr 0.00 in0.0 mm
06:50 AM 55.9°F13.3°C 55.1°F12.8°C 97% 6.9 mph NNE11.1 kmh NNE 17.4 mph28.0 kmh 30.08 in1018.6 mb 0.00 in0.0 mm 0.00 in/hr0.0 mm/hr 0.00 in0.0 mm
06:45 AM 56.1°F13.4°C 55.3°F12.9°C 97% 9.2 mph NE14.8 kmh NE 16.8 mph27.0 kmh 30.08 in1018.6 mb 0.00 in0.0 mm 0.00 in/hr0.0 mm/hr 0.00 in0.0 mm
06:40 AM 56.5°F13.6°C 55.9°F13.3°C 98% 9.2 mph NE14.8 kmh NE 14.5 mph23.3 kmh 30.07 in1018.3 mb 0.00 in0.0 mm 0.00 in/hr0.0 mm/hr 0.00 in0.0 mm
06:35 AM 56.3°F13.5°C 55.8°F13.2°C 98% 6.9 mph NE11.1 kmh NE 14.5 mph23.3 kmh 30.07 in1018.3 mb 0.00 in0.0 mm 0.00 in/hr0.0 mm/hr 0.00 in0.0 mm
06:30 AM 56.5°F13.6°C 55.9°F13.3°C 98% 6.9 mph NNE11.1 kmh NNE 13.0 mph20.9 kmh 30.07 in1018.3 mb 0.00 in0.0 mm 0.00 in/hr0.0 mm/hr 0.00 in0.0 mm
06:25 AM 56.7°F13.7°C 56.1°F13.4°C 98% 8.3 mph NNE13.4 kmh NNE 13.6 mph21.9 kmh 30.06 in1017.9 mb 0.00 in0.0 mm 0.00 in/hr0.0 mm/hr 0.00 in0.0 mm
06:20 AM 56.5°F13.6°C 55.9°F13.3°C 98% 9.2 mph NNE14.8 kmh NNE 13.6 mph21.9 kmh 30.07 in1018.3 mb 0.00 in0.0 mm 0.00 in/hr0.0 mm/hr 0.00 in0.0 mm
06:15 AM 56.5°F13.6°C 56.2°F13.4°C 99% 7.6 mph NNE12.2 kmh NNE 13.6 mph21.9 kmh 30.07 in1018.3 mb 0.00 in0.0 mm 0.00 in/hr0.0 mm/hr 0.00 in0.0 mm
06:10 AM 56.7°F13.7°C 56.4°F13.6°C 99% 6.9 mph NNE11.1 kmh NNE 10.7 mph17.2 kmh 30.07 in1018.3 mb 0.00 in0.0 mm 0.00 in/hr0.0 mm/hr 0.00 in0.0 mm
06:05 AM 56.5°F13.6°C 56.2°F13.4°C 99% 6.0 mph NNE9.7 kmh NNE 13.0 mph20.9 kmh 30.07 in1018.3 mb 0.00 in0.0 mm 0.00 in/hr0.0 mm/hr 0.00 in0.0 mm
06:00 AM 56.5°F13.6°C 56.2°F13.4°C 99% 7.6 mph NNE12.2 kmh NNE 13.0 mph20.9 kmh 30.07 in1018.3 mb 0.00 in0.0 mm 0.00 in/hr0.0 mm/hr 0.00 in0.0 mm
05:55 AM 56.5°F13.6°C 56.2°F13.4°C 99% 3.8 mph NNE6.1 kmh NNE 10.7 mph17.2 kmh 30.06 in1017.9 mb 0.00 in0.0 mm 0.00 in/hr0.0 mm/hr 0.00 in0.0 mm
05:50 AM 56.7°F13.7°C 56.4°F13.6°C 99% 6.0 mph NNE9.7 kmh NNE 10.7 mph17.2 kmh 30.06 in1017.9 mb 0.00 in0.0 mm 0.00 in/hr0.0 mm/hr 0.00 in0.0 mm
05:45 AM 56.5°F13.6°C 56.2°F13.4°C 99% 3.8 mph N6.1 kmh N 10.7 mph17.2 kmh 30.06 in1017.9 mb 0.00 in0.0 mm 0.00 in/hr0.0 mm/hr 0.00 in0.0 mm
05:40 AM 56.5°F13.6°C 56.2°F13.4°C 99% 6.0 mph N9.7 kmh N 10.7 mph17.2 kmh 30.06 in1017.9 mb 0.00 in0.0 mm 0.00 in/hr0.0 mm/hr 0.00 in0.0 mm
05:35 AM 56.5°F13.6°C 56.2°F13.4°C 99% 6.9 mph NNE11.1 kmh NNE 11.4 mph18.3 kmh 30.06 in1017.9 mb 0.00 in0.0 mm 0.00 in/hr0.0 mm/hr 0.00 in0.0 mm
05:30 AM 56.5°F13.6°C 56.2°F13.4°C 99% 7.6 mph NNE12.2 kmh NNE 11.4 mph18.3 kmh 30.06 in1017.9 mb 0.00 in0.0 mm 0.00 in/hr0.0 mm/hr 0.00 in0.0 mm
05:25 AM 56.5°F13.6°C 56.2°F13.4°C 99% 6.0 mph NE9.7 kmh NE 12.1 mph19.5 kmh 30.05 in1017.6 mb 0.00 in0.0 mm 0.00 in/hr0.0 mm/hr 0.00 in0.0 mm
05:20 AM 56.5°F13.6°C 56.2°F13.4°C 99% 6.9 mph NE11.1 kmh NE 12.1 mph19.5 kmh 30.05 in1017.6 mb 0.00 in0.0 mm 0.00 in/hr0.0 mm/hr 0.00 in0.0 mm
05:15 AM 56.5°F13.6°C 56.2°F13.4°C 99% 6.0 mph N9.7 kmh N 11.4 mph18.3 kmh 30.05 in1017.6 mb 0.00 in0.0 mm 0.00 in/hr0.0 mm/hr 0.00 in0.0 mm
05:10 AM 56.5°F13.6°C 56.2°F13.4°C 99% 6.9 mph N11.1 kmh N 13.0 mph20.9 kmh 30.04 in1017.3 mb 0.00 in0.0 mm 0.00 in/hr0.0 mm/hr 0.00 in0.0 mm
05:05 AM 56.5°F13.6°C 56.2°F13.4°C 99% 5.4 mph NNE8.7 kmh NNE 13.0 mph20.9 kmh 30.04 in1017.3 mb 0.00 in0.0 mm 0.00 in/hr0.0 mm/hr 0.00 in0.0 mm
05:00 AM 56.5°F13.6°C 56.2°F13.4°C 99% 6.0 mph NNE9.7 kmh NNE 12.1 mph19.5 kmh 30.03 in1016.9 mb 0.00 in0.0 mm 0.00 in/hr0.0 mm/hr 0.00 in0.0 mm
04:55 AM 56.3°F13.5°C 56.0°F13.3°C 99% 6.9 mph NE11.1 kmh NE 13.6 mph21.9 kmh 30.03 in1016.9 mb 0.00 in0.0 mm 0.00 in/hr0.0 mm/hr 0.00 in0.0 mm
04:50 AM 56.3°F13.5°C 56.0°F13.3°C 99% 7.6 mph NE12.2 kmh NE 13.6 mph21.9 kmh 30.03 in1016.9 mb 0.00 in0.0 mm 0.00 in/hr0.0 mm/hr 0.00 in0.0 mm
04:45 AM 56.3°F13.5°C 56.0°F13.3°C 99% 8.3 mph N13.4 kmh N 13.0 mph20.9 kmh 30.03 in1016.9 mb 0.00 in0.0 mm 0.00 in/hr0.0 mm/hr 0.00 in0.0 mm
04:40 AM 56.3°F13.5°C 56.0°F13.3°C 99% 6.9 mph N11.1 kmh N 13.0 mph20.9 kmh 30.02 in1016.6 mb 0.00 in0.0 mm 0.00 in/hr0.0 mm/hr 0.00 in0.0 mm
04:35 AM 56.3°F13.5°C 56.0°F13.3°C 99% 9.8 mph N15.8 kmh N 13.0 mph20.9 kmh 30.02 in1016.6 mb 0.00 in0.0 mm 0.00 in/hr0.0 mm/hr 0.00 in0.0 mm
04:30 AM 56.3°F13.5°C 56.0°F13.3°C 99% 6.9 mph N11.1 kmh N 11.4 mph18.3 kmh 30.02 in1016.6 mb 0.00 in0.0 mm 0.00 in/hr0.0 mm/hr 0.00 in0.0 mm
04:25 AM 56.3°F13.5°C 56.0°F13.3°C 99% 8.3 mph NNE13.4 kmh NNE 11.4 mph18.3 kmh 30.03 in1016.9 mb 0.00 in0.0 mm 0.00 in/hr0.0 mm/hr 0.00 in0.0 mm
04:20 AM 56.3°F13.5°C 56.0°F13.3°C 99% 9.2 mph NNE14.8 kmh NNE 11.4 mph18.3 kmh 30.02 in1016.6 mb 0.00 in0.0 mm 0.00 in/hr0.0 mm/hr 0.00 in0.0 mm
04:15 AM 56.3°F13.5°C 55.8°F13.2°C 98% 7.6 mph N12.2 kmh N 12.1 mph19.5 kmh 30.02 in1016.6 mb 0.00 in0.0 mm 0.00 in/hr0.0 mm/hr 0.00 in0.0 mm
04:10 AM 56.3°F13.5°C 55.8°F13.2°C 98% 6.9 mph N11.1 kmh N 12.1 mph19.5 kmh 30.02 in1016.6 mb 0.00 in0.0 mm 0.00 in/hr0.0 mm/hr 0.00 in0.0 mm
04:05 AM 56.3°F13.5°C 55.8°F13.2°C 98% 6.0 mph NNE9.7 kmh NNE 11.4 mph18.3 kmh 30.02 in1016.6 mb 0.00 in0.0 mm 0.00 in/hr0.0 mm/hr 0.00 in0.0 mm
04:00 AM 56.3°F13.5°C 55.5°F13.1°C 97% 9.2 mph NNE14.8 kmh NNE 11.4 mph18.3 kmh 30.02 in1016.6 mb 0.00 in0.0 mm 0.00 in/hr0.0 mm/hr 0.00 in0.0 mm
03:55 AM 56.3°F13.5°C 55.5°F13.1°C 97% 6.0 mph NNE9.7 kmh NNE 11.4 mph18.3 kmh 30.02 in1016.6 mb 0.00 in0.0 mm 0.00 in/hr0.0 mm/hr 0.00 in0.0 mm
03:50 AM 56.3°F13.5°C 55.5°F13.1°C 97% 4.5 mph NNE7.2 kmh NNE 13.6 mph21.9 kmh 30.02 in1016.6 mb 0.00 in0.0 mm 0.00 in/hr0.0 mm/hr 0.00 in0.0 mm
03:45 AM 56.3°F13.5°C 55.5°F13.1°C 97% 5.4 mph NE8.7 kmh NE 13.6 mph21.9 kmh 30.02 in1016.6 mb 0.00 in0.0 mm 0.00 in/hr0.0 mm/hr 0.00 in0.0 mm
03:40 AM 56.3°F13.5°C 55.5°F13.1°C 97% 8.3 mph NNE13.4 kmh NNE 13.6 mph21.9 kmh 30.01 in1016.3 mb 0.00 in0.0 mm 0.00 in/hr0.0 mm/hr 0.00 in0.0 mm
03:35 AM 56.3°F13.5°C 55.5°F13.1°C 97% 6.0 mph NNE9.7 kmh NNE 13.6 mph21.9 kmh 30.01 in1016.3 mb 0.00 in0.0 mm 0.00 in/hr0.0 mm/hr 0.00 in0.0 mm
03:30 AM 56.3°F13.5°C 55.2°F12.9°C 96% 7.6 mph NNE12.2 kmh NNE 14.5 mph23.3 kmh 30.01 in1016.3 mb 0.00 in0.0 mm 0.00 in/hr0.0 mm/hr 0.00 in0.0 mm
03:25 AM 56.5°F13.6°C 55.4°F13.0°C 96% 6.9 mph N11.1 kmh N 14.5 mph23.3 kmh 30.02 in1016.6 mb 0.00 in0.0 mm 0.00 in/hr0.0 mm/hr 0.00 in0.0 mm
03:20 AM 56.5°F13.6°C 55.4°F13.0°C 96% 6.9 mph N11.1 kmh N 13.6 mph21.9 kmh 30.02 in1016.6 mb 0.00 in0.0 mm 0.00 in/hr0.0 mm/hr 0.00 in0.0 mm
03:15 AM 56.5°F13.6°C 55.4°F13.0°C 96% 8.3 mph N13.4 kmh N 13.6 mph21.9 kmh 30.01 in1016.3 mb 0.00 in0.0 mm 0.00 in/hr0.0 mm/hr 0.00 in0.0 mm
03:10 AM 56.3°F13.5°C 55.5°F13.1°C 97% 9.2 mph NNE14.8 kmh NNE 13.0 mph20.9 kmh 30.01 in1016.3 mb 0.00 in0.0 mm 0.00 in/hr0.0 mm/hr 0.00 in0.0 mm
03:05 AM 56.5°F13.6°C 55.4°F13.0°C 96% 6.9 mph NNE11.1 kmh NNE 12.1 mph19.5 kmh 30.01 in1016.3 mb 0.00 in0.0 mm 0.00 in/hr0.0 mm/hr 0.00 in0.0 mm
03:00 AM 56.3°F13.5°C 55.2°F12.9°C 96% 7.6 mph N12.2 kmh N 12.1 mph19.5 kmh 30.01 in1016.3 mb 0.00 in0.0 mm 0.00 in/hr0.0 mm/hr 0.00 in0.0 mm
02:55 AM 56.5°F13.6°C 55.4°F13.0°C 96% 8.3 mph N13.4 kmh N 13.0 mph20.9 kmh 30.01 in1016.3 mb 0.00 in0.0 mm 0.00 in/hr0.0 mm/hr 0.00 in0.0 mm
02:50 AM 56.5°F13.6°C 55.4°F13.0°C 96% 9.2 mph N14.8 kmh N 13.0 mph20.9 kmh 30.01 in1016.3 mb 0.00 in0.0 mm 0.00 in/hr0.0 mm/hr 0.00 in0.0 mm
02:45 AM 56.5°F13.6°C 55.4°F13.0°C 96% 7.6 mph N12.2 kmh N 13.6 mph21.9 kmh 30.01 in1016.3 mb 0.00 in0.0 mm 0.00 in/hr0.0 mm/hr 0.00 in0.0 mm
02:40 AM 56.7°F13.7°C 55.8°F13.2°C 97% 9.8 mph N15.8 kmh N 13.6 mph21.9 kmh 30.01 in1016.3 mb 0.00 in0.0 mm 0.00 in/hr0.0 mm/hr 0.00 in0.0 mm
02:35 AM 56.7°F13.7°C 55.8°F13.2°C 97% 7.6 mph N12.2 kmh N 13.0 mph20.9 kmh 30.01 in1016.3 mb 0.00 in0.0 mm 0.00 in/hr0.0 mm/hr 0.00 in0.0 mm
02:30 AM 56.7°F13.7°C 56.1°F13.4°C 98% 6.9 mph N11.1 kmh N 10.7 mph17.2 kmh 30.01 in1016.3 mb 0.00 in0.0 mm 0.00 in/hr0.0 mm/hr 0.00 in0.0 mm
02:25 AM 56.7°F13.7°C 56.1°F13.4°C 98% 5.4 mph N8.7 kmh N 13.0 mph20.9 kmh 30.01 in1016.3 mb 0.00 in0.0 mm 0.00 in/hr0.0 mm/hr 0.00 in0.0 mm
02:20 AM 56.7°F13.7°C 56.1°F13.4°C 98% 6.0 mph N9.7 kmh N 13.0 mph20.9 kmh 30.01 in1016.3 mb 0.00 in0.0 mm 0.00 in/hr0.0 mm/hr 0.00 in0.0 mm
02:15 AM 56.7°F13.7°C 56.1°F13.4°C 98% 5.4 mph N8.7 kmh N 12.1 mph19.5 kmh 30.01 in1016.3 mb 0.00 in0.0 mm 0.00 in/hr0.0 mm/hr 0.00 in0.0 mm
02:10 AM 56.7°F13.7°C 56.4°F13.6°C 99% 6.0 mph N9.7 kmh N 11.4 mph18.3 kmh 30.01 in1016.3 mb 0.00 in0.0 mm 0.00 in/hr0.0 mm/hr 0.00 in0.0 mm
02:05 AM 56.7°F13.7°C 56.4°F13.6°C 99% 7.6 mph N12.2 kmh N 13.0 mph20.9 kmh 30.01 in1016.3 mb 0.00 in0.0 mm 0.00 in/hr0.0 mm/hr 0.00 in0.0 mm
02:00 AM 56.7°F13.7°C 56.4°F13.6°C 99% 6.9 mph N11.1 kmh N 13.0 mph20.9 kmh 30.01 in1016.3 mb 0.00 in0.0 mm 0.00 in/hr0.0 mm/hr 0.00 in0.0 mm
01:55 AM 56.5°F13.6°C 56.2°F13.4°C 99% 6.0 mph NNE9.7 kmh NNE 12.1 mph19.5 kmh 30.01 in1016.3 mb 0.00 in0.0 mm 0.00 in/hr0.0 mm/hr 0.00 in0.0 mm
01:50 AM 56.5°F13.6°C 56.2°F13.4°C 99% 6.9 mph N11.1 kmh N 12.1 mph19.5 kmh 30.01 in1016.3 mb 0.00 in0.0 mm 0.00 in/hr0.0 mm/hr 0.00 in0.0 mm
01:45 AM 56.5°F13.6°C 56.2°F13.4°C 99% 7.6 mph N12.2 kmh N 12.1 mph19.5 kmh 30.01 in1016.3 mb 0.00 in0.0 mm 0.00 in/hr0.0 mm/hr 0.00 in0.0 mm
01:40 AM 56.5°F13.6°C 56.2°F13.4°C 99% 3.8 mph N6.1 kmh N 11.4 mph18.3 kmh 30.01 in1016.3 mb 0.00 in0.0 mm 0.00 in/hr0.0 mm/hr 0.00 in0.0 mm
01:35 AM 56.5°F13.6°C 56.2°F13.4°C 99% 6.9 mph N11.1 kmh N 11.4 mph18.3 kmh 30.01 in1016.3 mb 0.00 in0.0 mm 0.00 in/hr0.0 mm/hr 0.00 in0.0 mm
01:30 AM 56.5°F13.6°C 56.2°F13.4°C 99% 8.3 mph N13.4 kmh N 13.0 mph20.9 kmh 30.01 in1016.3 mb 0.00 in0.0 mm 0.00 in/hr0.0 mm/hr 0.00 in0.0 mm
01:25 AM 56.5°F13.6°C 56.2°F13.4°C 99% 8.3 mph N13.4 kmh N 13.0 mph20.9 kmh 30.01 in1016.3 mb 0.00 in0.0 mm 0.00 in/hr0.0 mm/hr 0.00 in0.0 mm
01:20 AM 56.5°F13.6°C 56.2°F13.4°C 99% 6.9 mph N11.1 kmh N 11.4 mph18.3 kmh 30.01 in1016.3 mb 0.00 in0.0 mm 0.00 in/hr0.0 mm/hr 0.00 in0.0 mm
01:15 AM 56.5°F13.6°C 56.2°F13.4°C 99% 6.0 mph N9.7 kmh N 10.7 mph17.2 kmh 30.01 in1016.3 mb 0.00 in0.0 mm 0.00 in/hr0.0 mm/hr 0.00 in0.0 mm
01:10 AM 56.5°F13.6°C 56.2°F13.4°C 99% 6.9 mph N11.1 kmh N 10.7 mph17.2 kmh 30.02 in1016.6 mb 0.00 in0.0 mm 0.00 in/hr0.0 mm/hr 0.00 in0.0 mm
01:05 AM 56.3°F13.5°C 56.0°F13.3°C 99% 7.6 mph N12.2 kmh N 11.4 mph18.3 kmh 30.01 in1016.3 mb 0.00 in0.0 mm 0.00 in/hr0.0 mm/hr 0.00 in0.0 mm
01:00 AM 56.3°F13.5°C 56.0°F13.3°C 99% 6.9 mph N11.1 kmh N 11.4 mph18.3 kmh 30.02 in1016.6 mb 0.00 in0.0 mm 0.00 in/hr0.0 mm/hr 0.00 in0.0 mm
12:55 AM 56.3°F13.5°C 56.0°F13.3°C 99% 7.6 mph N12.2 kmh N 11.4 mph18.3 kmh 30.02 in1016.6 mb 0.00 in0.0 mm 0.00 in/hr0.0 mm/hr 0.00 in0.0 mm
12:50 AM 56.1°F13.4°C 55.9°F13.3°C 99% 6.9 mph N11.1 kmh N 12.1 mph19.5 kmh 30.02 in1016.6 mb 0.00 in0.0 mm 0.00 in/hr0.0 mm/hr 0.00 in0.0 mm
12:45 AM 56.1°F13.4°C 55.9°F13.3°C 99% 5.4 mph N8.7 kmh N 12.1 mph19.5 kmh 30.02 in1016.6 mb 0.00 in0.0 mm 0.00 in/hr0.0 mm/hr 0.00 in0.0 mm
12:40 AM 56.1°F13.4°C 55.9°F13.3°C 99% 7.6 mph N12.2 kmh N 12.1 mph19.5 kmh 30.02 in1016.6 mb 0.00 in0.0 mm 0.00 in/hr0.0 mm/hr 0.00 in0.0 mm
12:35 AM 56.1°F13.4°C 55.9°F13.3°C 99% 7.6 mph N12.2 kmh N 9.8 mph15.8 kmh 30.02 in1016.6 mb 0.00 in0.0 mm 0.00 in/hr0.0 mm/hr 0.00 in0.0 mm
12:30 AM 56.1°F13.4°C 55.9°F13.3°C 99% 5.4 mph N8.7 kmh N 9.2 mph14.8 kmh 30.02 in1016.6 mb 0.00 in0.0 mm 0.00 in/hr0.0 mm/hr 0.00 in0.0 mm
12:25 AM 56.1°F13.4°C 55.9°F13.3°C 99% 6.0 mph N9.7 kmh N 9.8 mph15.8 kmh 30.02 in1016.6 mb 0.00 in0.0 mm 0.00 in/hr0.0 mm/hr 0.00 in0.0 mm
12:20 AM 55.9°F13.3°C 55.7°F13.2°C 99% 6.0 mph N9.7 kmh N 11.4 mph18.3 kmh 30.02 in1016.6 mb 0.00 in0.0 mm 0.00 in/hr0.0 mm/hr 0.00 in0.0 mm
12:15 AM 55.9°F13.3°C 55.7°F13.2°C 99% 7.6 mph N12.2 kmh N 11.4 mph18.3 kmh 30.02 in1016.6 mb 0.00 in0.0 mm 0.00 in/hr0.0 mm/hr 0.00 in0.0 mm
12:10 AM 55.9°F13.3°C 55.7°F13.2°C 99% 7.6 mph N12.2 kmh N 11.4 mph18.3 kmh 30.02 in1016.6 mb 0.00 in0.0 mm 0.00 in/hr0.0 mm/hr 0.00 in0.0 mm
12:05 AM 55.9°F13.3°C 55.7°F13.2°C 99% 8.3 mph N13.4 kmh N 13.6 mph21.9 kmh 30.02 in1016.6 mb 0.00 in0.0 mm 0.00 in/hr0.0 mm/hr 0.00 in0.0 mm
12:00 AM 55.9°F13.3°C 55.7°F13.2°C 99% 8.3 mph N13.4 kmh N 13.6 mph21.9 kmh 30.01 in1016.3 mb 0.00 in0.0 mm 0.00 in/hr0.0 mm/hr 0.46 in11.7 mm